createdAt,value
2023-05-12T00:03:41.407Z,60.13
2023-05-12T00:06:10.168Z,60.05
2023-05-12T00:08:38.530Z,59.99
2023-05-12T00:11:07.180Z,60.15
2023-05-12T00:13:35.497Z,60.38
2023-05-12T00:16:04.246Z,60.60
2023-05-12T00:18:32.607Z,60.74
2023-05-12T00:21:00.757Z,60.93
2023-05-12T00:23:28.975Z,60.97
2023-05-12T00:25:57.069Z,61.11
2023-05-12T00:28:25.054Z,61.05
2023-05-12T00:30:53.160Z,61.19
2023-05-12T00:33:21.236Z,61.24
2023-05-12T00:35:49.400Z,61.30
2023-05-12T00:38:17.583Z,61.59
2023-05-12T00:40:45.877Z,61.86
2023-05-12T00:43:14.677Z,61.88
2023-05-12T00:45:44.015Z,62.05
2023-05-12T00:48:12.540Z,61.91
2023-05-12T00:50:40.704Z,61.81
2023-05-12T00:53:10.079Z,61.85
2023-05-12T00:55:38.242Z,61.73
2023-05-12T00:58:06.452Z,61.58
2023-05-12T01:00:34.806Z,61.60
2023-05-12T01:03:04.610Z,61.61
2023-05-12T01:05:59.012Z,61.29
2023-05-12T01:08:27.558Z,60.85
2023-05-12T01:10:55.676Z,60.87
2023-05-12T01:13:23.928Z,60.66
2023-05-12T01:15:54.060Z,60.81
2023-05-12T01:18:24.520Z,60.88
2023-05-12T01:20:55.348Z,60.81
2023-05-12T01:23:32.059Z,60.82
2023-05-12T01:26:07.116Z,60.90
2023-05-12T01:28:37.175Z,60.90
2023-05-12T01:31:07.557Z,60.94
2023-05-12T01:33:36.924Z,60.88
2023-05-12T01:36:05.405Z,60.88
2023-05-12T01:38:33.575Z,61.25
2023-05-12T01:41:01.577Z,61.09
2023-05-12T01:43:29.712Z,61.15
2023-05-12T01:45:58.248Z,61.34
2023-05-12T01:48:26.506Z,61.16
2023-05-12T01:50:54.641Z,61.10
2023-05-12T01:53:23.212Z,61.21
2023-05-12T01:55:51.830Z,61.16
2023-05-12T01:58:20.003Z,61.20
2023-05-12T02:00:48.362Z,61.31
2023-05-12T02:03:17.125Z,61.56
2023-05-12T02:05:45.425Z,61.59
2023-05-12T02:08:13.490Z,61.63
2023-05-12T02:10:41.595Z,61.66
2023-05-12T02:13:10.316Z,61.67
2023-05-12T02:15:38.575Z,61.70
2023-05-12T02:18:07.263Z,61.61
2023-05-12T02:20:35.647Z,61.83
2023-05-12T02:23:03.684Z,61.78
2023-05-12T02:25:31.837Z,61.80
2023-05-12T02:27:59.882Z,61.77
2023-05-12T02:30:27.970Z,61.85
2023-05-12T02:32:56.227Z,61.92
2023-05-12T02:35:25.382Z,61.76
2023-05-12T02:37:54.242Z,61.75
2023-05-12T02:40:22.410Z,61.64
2023-05-12T02:42:50.920Z,61.56
2023-05-12T02:45:19.122Z,61.61
2023-05-12T02:47:47.544Z,61.69
2023-05-12T02:50:15.781Z,61.52
2023-05-12T02:52:43.906Z,61.58
2023-05-12T02:55:12.179Z,61.42
2023-05-12T02:57:41.138Z,61.54
2023-05-12T03:00:09.662Z,61.40
2023-05-12T03:02:39.164Z,61.32
2023-05-12T03:05:08.742Z,61.44
2023-05-12T03:07:36.837Z,61.48
2023-05-12T03:10:05.802Z,61.51
2023-05-12T03:12:34.909Z,61.51
2023-05-12T03:15:03.942Z,61.39
2023-05-12T03:17:32.339Z,61.39
2023-05-12T03:20:00.483Z,61.45
2023-05-12T03:22:29.390Z,61.52
2023-05-12T03:24:57.631Z,61.59
2023-05-12T03:27:26.285Z,61.65
2023-05-12T03:29:54.345Z,61.74
2023-05-12T03:32:22.480Z,61.70
2023-05-12T03:34:51.028Z,61.70
2023-05-12T03:37:19.166Z,61.85
2023-05-12T03:39:47.289Z,61.84
2023-05-12T03:42:15.954Z,61.91
2023-05-12T03:44:44.540Z,61.87
2023-05-12T03:47:13.301Z,61.90
2023-05-12T03:49:41.791Z,62.06
2023-05-12T03:52:10.038Z,62.26
2023-05-12T03:54:38.715Z,62.18
2023-05-12T03:57:07.120Z,62.23
2023-05-12T03:59:35.213Z,62.35
2023-05-12T04:02:03.473Z,62.22
2023-05-12T04:04:32.479Z,62.18
2023-05-12T04:07:00.530Z,62.19
2023-05-12T04:09:31.548Z,62.24
2023-05-12T04:12:00.266Z,61.77
2023-05-12T04:14:39.045Z,61.60
2023-05-12T04:17:10.985Z,61.30
2023-05-12T04:19:39.020Z,61.02
2023-05-12T04:22:08.482Z,60.40
2023-05-12T04:24:37.716Z,60.53
2023-05-12T04:27:06.985Z,60.24
2023-05-12T04:29:35.370Z,59.93
2023-05-12T04:32:04.129Z,59.84
2023-05-12T04:34:32.344Z,59.90
2023-05-12T04:37:00.502Z,59.91
2023-05-12T04:39:29.169Z,59.57
2023-05-12T04:41:57.724Z,59.50
2023-05-12T04:44:26.146Z,59.44
2023-05-12T04:46:54.345Z,59.26
2023-05-12T04:49:22.795Z,59.12
2023-05-12T04:51:50.789Z,59.16
2023-05-12T04:54:18.857Z,59.08
2023-05-12T04:56:46.920Z,58.65
2023-05-12T04:59:15.100Z,58.69
2023-05-12T05:01:43.736Z,58.51
2023-05-12T05:04:13.063Z,57.45
2023-05-12T05:06:41.355Z,57.30
2023-05-12T05:09:09.534Z,57.58
2023-05-12T05:11:37.806Z,57.44
2023-05-12T05:14:05.904Z,57.22
2023-05-12T05:16:34.026Z,57.02
2023-05-12T05:19:06.482Z,57.21
2023-05-12T05:21:37.314Z,57.30
2023-05-12T05:24:09.068Z,57.15
2023-05-12T05:26:37.253Z,57.15
2023-05-12T05:29:05.317Z,57.00
2023-05-12T05:31:33.859Z,57.19
2023-05-12T05:34:02.189Z,57.34
2023-05-12T05:36:31.564Z,57.36
2023-05-12T05:39:00.197Z,57.14
2023-05-12T05:41:28.372Z,57.02
2023-05-12T05:43:56.658Z,57.27
2023-05-12T05:46:25.088Z,57.30
2023-05-12T05:48:53.795Z,57.29
2023-05-12T05:51:21.956Z,57.22
2023-05-12T05:53:50.371Z,57.02
2023-05-12T05:56:18.493Z,56.74
2023-05-12T05:58:46.951Z,57.03
2023-05-12T06:01:15.540Z,57.16
2023-05-12T06:03:43.850Z,57.19
2023-05-12T06:06:12.258Z,57.13
2023-05-12T06:08:40.386Z,56.95
2023-05-12T06:11:08.456Z,56.86
2023-05-12T06:13:36.844Z,56.66
2023-05-12T06:16:05.923Z,56.88
2023-05-12T06:18:34.035Z,56.91
2023-05-12T06:21:02.989Z,56.61
2023-05-12T06:23:31.626Z,56.63
2023-05-12T06:25:59.994Z,56.44
2023-05-12T06:28:28.139Z,56.55
2023-05-12T06:30:56.728Z,56.57
2023-05-12T06:33:24.966Z,56.80
2023-05-12T06:35:53.197Z,57.02
2023-05-12T06:38:21.370Z,57.41
2023-05-12T06:40:49.406Z,57.78
2023-05-12T06:43:17.473Z,58.18
2023-05-12T06:45:45.804Z,58.40
2023-05-12T06:48:14.426Z,58.57
2023-05-12T06:50:42.531Z,58.62
2023-05-12T06:53:11.862Z,58.80
2023-05-12T06:55:40.297Z,58.66
2023-05-12T06:58:08.354Z,58.77
2023-05-12T07:00:36.890Z,58.79
2023-05-12T07:03:05.360Z,58.81
2023-05-12T07:05:34.869Z,58.78
2023-05-12T07:08:06.619Z,58.73
2023-05-12T07:10:34.802Z,58.96
2023-05-12T07:13:03.473Z,59.16
2023-05-12T07:15:32.969Z,59.31
2023-05-12T07:18:01.883Z,59.41
2023-05-12T07:20:30.705Z,59.35
2023-05-12T07:22:58.911Z,59.15
2023-05-12T07:25:27.146Z,58.51
2023-05-12T07:27:55.628Z,57.64
2023-05-12T07:30:23.805Z,57.34
2023-05-12T07:32:51.950Z,56.76
2023-05-12T07:35:20.301Z,56.13
2023-05-12T07:37:49.318Z,56.01
2023-05-12T07:40:17.949Z,55.39
2023-05-12T07:42:46.051Z,54.85
2023-05-12T07:45:14.352Z,53.27
2023-05-12T07:47:43.342Z,51.35
2023-05-12T07:50:11.904Z,50.46
2023-05-12T07:52:47.445Z,50.27
2023-05-12T07:55:16.929Z,50.26
2023-05-12T07:57:45.638Z,50.24
2023-05-12T08:00:14.323Z,49.42
2023-05-12T08:02:43.247Z,48.23
2023-05-12T08:05:11.920Z,47.36
2023-05-12T08:07:41.169Z,47.26
2023-05-12T08:12:57.404Z,47.55
2023-05-12T08:15:25.575Z,47.40
2023-05-12T08:17:53.917Z,47.14
2023-05-12T08:20:22.148Z,46.48
2023-05-12T08:22:50.299Z,46.41
2023-05-12T08:25:18.774Z,46.34
2023-05-12T08:27:47.268Z,46.28
2023-05-12T08:30:15.482Z,46.46
2023-05-12T08:32:44.894Z,46.46
2023-05-12T08:35:13.137Z,46.15
2023-05-12T08:37:41.297Z,45.72
2023-05-12T08:40:16.042Z,46.21
2023-05-12T08:42:49.538Z,46.68
2023-05-12T08:45:19.202Z,46.82
2023-05-12T08:47:47.570Z,46.64
2023-05-12T08:50:18.085Z,46.71
2023-05-12T08:52:46.671Z,46.54
2023-05-12T08:55:15.524Z,46.29
2023-05-12T08:57:45.233Z,44.99
2023-05-12T09:00:15.827Z,44.33
2023-05-12T09:02:52.831Z,44.55
2023-05-12T09:05:25.937Z,44.23
2023-05-12T09:07:54.842Z,43.57
2023-05-12T09:13:03.864Z,43.41
2023-05-12T09:15:38.677Z,43.67
2023-05-12T09:18:07.687Z,43.09
2023-05-12T09:20:36.879Z,43.25
2023-05-12T09:23:21.620Z,43.05
2023-05-12T09:26:00.268Z,42.90
2023-05-12T09:28:39.020Z,42.62
2023-05-12T09:31:21.698Z,43.11
2023-05-12T09:33:52.208Z,42.86
2023-05-12T09:36:24.635Z,42.75
2023-05-12T09:39:03.525Z,42.43
2023-05-12T09:41:35.655Z,42.69
2023-05-12T09:44:04.608Z,42.54
2023-05-12T09:46:32.854Z,43.02
2023-05-12T09:49:01.727Z,43.00
2023-05-12T09:51:30.301Z,43.29
2023-05-12T09:53:58.722Z,43.68
2023-05-12T09:56:30.968Z,43.07
2023-05-12T09:58:59.374Z,43.00
2023-05-12T10:01:27.546Z,43.08
2023-05-12T10:03:57.915Z,43.12
2023-05-12T10:06:32.167Z,43.40
2023-05-12T10:09:12.175Z,43.82
2023-05-12T10:11:41.333Z,44.00
2023-05-12T10:14:10.596Z,44.15
2023-05-12T10:16:43.930Z,44.43
2023-05-12T10:19:18.806Z,44.00
2023-05-12T10:21:52.377Z,43.63
2023-05-12T10:24:22.002Z,43.47
2023-05-12T10:26:51.104Z,42.98
2023-05-12T10:29:25.484Z,42.55
2023-05-12T10:31:57.970Z,42.76
2023-05-12T10:34:48.576Z,42.50
2023-05-12T10:37:16.813Z,42.58
2023-05-12T10:39:53.039Z,42.79
2023-05-12T10:42:22.632Z,42.88
2023-05-12T10:44:55.820Z,42.77
2023-05-12T10:47:36.690Z,42.85
2023-05-12T10:50:05.982Z,42.38
2023-05-12T10:52:34.202Z,42.17
2023-05-12T10:55:04.386Z,41.95
2023-05-12T10:57:33.985Z,41.76
2023-05-12T11:00:04.385Z,41.93
2023-05-12T11:02:34.692Z,41.87
2023-05-12T11:05:11.181Z,41.78
2023-05-12T11:07:39.905Z,41.83
2023-05-12T11:10:08.930Z,41.54
2023-05-12T11:12:37.617Z,41.69
2023-05-12T11:15:07.314Z,41.07
2023-05-12T11:17:42.116Z,41.13
2023-05-12T11:20:22.636Z,41.36
2023-05-12T11:22:51.872Z,41.34
2023-05-12T11:25:20.534Z,41.59
2023-05-12T11:27:53.140Z,41.39
2023-05-12T11:30:23.133Z,41.67
2023-05-12T11:33:03.528Z,42.06
2023-05-12T11:35:32.225Z,41.53
2023-05-12T11:38:01.805Z,40.68
2023-05-12T11:40:30.598Z,40.22
2023-05-12T11:43:10.297Z,40.24
2023-05-12T11:45:38.688Z,40.36
2023-05-12T11:48:17.223Z,40.82
2023-05-12T11:50:46.351Z,40.05
2023-05-12T11:53:17.355Z,39.17
2023-05-12T11:55:53.850Z,39.23
2023-05-12T11:58:24.824Z,39.40
2023-05-12T12:00:54.285Z,39.69
2023-05-12T12:03:23.624Z,40.61
2023-05-12T12:06:03.582Z,40.37
2023-05-12T12:08:32.385Z,40.31
2023-05-12T12:11:03.627Z,40.84
2023-05-12T12:13:32.221Z,41.42
2023-05-12T12:16:00.392Z,41.56
2023-05-12T12:18:28.593Z,42.06
2023-05-12T12:20:57.166Z,42.22
2023-05-12T12:23:26.251Z,42.09
2023-05-12T12:25:54.348Z,42.58
2023-05-12T12:28:22.665Z,42.32
2023-05-12T12:30:51.336Z,42.65
2023-05-12T12:33:20.698Z,42.76
2023-05-12T12:35:49.254Z,42.36
2023-05-12T12:38:17.445Z,41.96
2023-05-12T12:40:45.663Z,42.10
2023-05-12T12:43:13.888Z,42.03
2023-05-12T12:45:41.897Z,42.48
2023-05-12T12:48:10.342Z,42.52
2023-05-12T12:50:38.568Z,41.91
2023-05-12T12:53:06.632Z,41.82
2023-05-12T12:55:36.600Z,41.73
2023-05-12T12:58:04.802Z,41.60
2023-05-12T13:00:32.905Z,42.04
2023-05-12T13:03:01.391Z,42.14
2023-05-12T13:05:29.799Z,42.06
2023-05-12T13:07:58.015Z,42.29
2023-05-12T13:10:26.366Z,42.21
2023-05-12T13:12:55.366Z,42.63
2023-05-12T13:15:23.847Z,43.20
2023-05-12T13:17:53.055Z,43.46
2023-05-12T13:20:22.009Z,42.92
2023-05-12T13:22:50.610Z,43.17
2023-05-12T13:25:18.830Z,44.04
2023-05-12T13:27:47.385Z,44.56
2023-05-12T13:30:16.495Z,44.47
2023-05-12T13:32:44.883Z,43.78
2023-05-12T13:35:13.596Z,43.76
2023-05-12T13:37:41.898Z,43.25
2023-05-12T13:40:10.345Z,43.59
2023-05-12T13:42:38.519Z,43.97
2023-05-12T13:45:08.035Z,43.42
2023-05-12T13:47:36.140Z,43.55
2023-05-12T13:50:05.617Z,43.84
2023-05-12T13:52:33.728Z,44.34
2023-05-12T13:55:01.884Z,44.92
2023-05-12T13:57:30.034Z,45.81
2023-05-12T13:59:58.582Z,46.23
2023-05-12T14:02:26.609Z,45.89
2023-05-12T14:04:55.873Z,45.42
2023-05-12T14:07:24.961Z,45.35
2023-05-12T14:09:53.163Z,44.89
2023-05-12T14:12:21.897Z,44.63
2023-05-12T14:14:50.062Z,44.07
2023-05-12T14:17:18.704Z,44.25
2023-05-12T14:19:46.906Z,44.42
2023-05-12T14:22:25.438Z,44.55
2023-05-12T14:24:54.570Z,44.75
2023-05-12T14:27:22.717Z,45.07
2023-05-12T14:29:50.956Z,45.55
2023-05-12T14:32:19.234Z,45.90
2023-05-12T14:34:47.587Z,46.22
2023-05-12T14:37:16.276Z,46.60
2023-05-12T14:39:44.910Z,47.18
2023-05-12T14:42:13.508Z,47.96
2023-05-12T14:44:42.192Z,48.90
2023-05-12T14:47:10.920Z,50.89
2023-05-12T14:49:39.161Z,53.03
2023-05-12T14:52:07.179Z,54.34
2023-05-12T14:54:36.948Z,56.38
2023-05-12T14:57:05.805Z,57.48
2023-05-12T14:59:34.426Z,58.78
2023-05-12T15:02:03.116Z,59.62
2023-05-12T15:04:31.496Z,60.97
2023-05-12T15:07:00.157Z,61.90
2023-05-12T15:09:28.293Z,63.44
2023-05-12T15:11:57.890Z,64.83
2023-05-12T15:14:26.338Z,65.55
2023-05-12T15:16:56.769Z,66.44
2023-05-12T15:19:26.650Z,66.63
2023-05-12T15:21:55.969Z,67.35
2023-05-12T15:24:26.857Z,67.77
2023-05-12T15:26:56.035Z,68.87
2023-05-12T15:29:24.262Z,69.73
2023-05-12T15:31:53.651Z,70.00
2023-05-12T15:34:23.965Z,70.43
2023-05-12T15:36:53.057Z,70.63
2023-05-12T15:39:23.488Z,70.24
2023-05-12T15:41:52.390Z,70.55
2023-05-12T15:44:22.136Z,70.89
2023-05-12T15:46:50.950Z,70.92
2023-05-12T15:49:20.928Z,70.64
2023-05-12T15:51:49.192Z,70.94
2023-05-12T15:54:17.950Z,71.67
2023-05-12T15:56:48.877Z,72.16
2023-05-12T15:59:18.091Z,70.97
2023-05-12T16:01:47.378Z,71.23
2023-05-12T16:04:15.693Z,72.06
2023-05-12T16:06:44.979Z,72.63
2023-05-12T16:09:13.545Z,73.15
2023-05-12T16:15:15.285Z,73.62
2023-05-12T16:17:43.606Z,73.87
2023-05-12T16:20:14.535Z,74.32
2023-05-12T16:22:43.793Z,74.30
2023-05-12T16:25:12.493Z,74.30
2023-05-12T16:27:40.861Z,74.46
2023-05-12T16:30:10.729Z,74.49
2023-05-12T16:32:39.320Z,74.49
2023-05-12T16:35:10.160Z,74.58
2023-05-12T16:37:38.793Z,74.91
2023-05-12T16:40:08.466Z,75.29
2023-05-12T16:42:37.700Z,75.28
2023-05-12T16:45:08.263Z,75.43
2023-05-12T16:47:37.752Z,75.44
2023-05-12T16:50:07.647Z,75.46
2023-05-12T16:52:36.206Z,75.65
2023-05-12T16:55:05.834Z,76.17
2023-05-12T16:57:35.695Z,76.01
2023-05-12T17:00:06.174Z,75.96
2023-05-12T17:02:35.299Z,76.06
2023-05-12T17:05:05.476Z,76.01
2023-05-12T17:07:34.682Z,76.38
2023-05-12T17:10:03.132Z,76.13
2023-05-12T17:12:32.189Z,76.19
2023-05-12T17:15:08.036Z,76.54
2023-05-12T17:17:51.543Z,76.46
2023-05-12T17:20:20.709Z,76.61
2023-05-12T17:22:49.988Z,76.64
2023-05-12T17:25:19.920Z,76.70
2023-05-12T17:27:48.678Z,76.71
2023-05-12T17:30:17.804Z,76.84
2023-05-12T17:32:45.953Z,76.92
2023-05-12T17:35:14.637Z,76.74
2023-05-12T17:37:42.929Z,76.95
2023-05-12T17:40:16.086Z,76.94
2023-05-12T17:42:45.065Z,77.07
2023-05-12T17:45:13.775Z,77.06
2023-05-12T17:47:44.632Z,77.06
2023-05-12T17:50:13.695Z,77.05
2023-05-12T17:52:43.128Z,77.14
2023-05-12T17:55:11.475Z,76.97
2023-05-12T17:57:39.486Z,77.36
2023-05-12T18:00:08.188Z,77.56
2023-05-12T18:02:39.545Z,77.46
2023-05-12T18:05:08.762Z,77.96
2023-05-12T18:07:38.101Z,77.93
2023-05-12T18:10:11.188Z,77.92
2023-05-12T18:12:40.124Z,77.83
2023-05-12T18:15:08.935Z,77.84
2023-05-12T18:17:37.315Z,77.84
2023-05-12T18:20:06.786Z,77.59
2023-05-12T18:22:35.127Z,77.59
2023-05-12T18:25:03.188Z,77.54
2023-05-12T18:27:31.223Z,77.63
2023-05-12T18:29:59.443Z,77.79
2023-05-12T18:32:27.644Z,77.95
2023-05-12T18:34:56.020Z,77.90
2023-05-12T18:37:24.027Z,77.88
2023-05-12T18:39:52.421Z,77.74
2023-05-12T18:42:20.481Z,77.88
2023-05-12T18:44:48.618Z,78.20
2023-05-12T18:47:16.667Z,78.23
2023-05-12T18:49:45.187Z,78.27
2023-05-12T18:52:13.173Z,78.01
2023-05-12T18:54:41.205Z,77.77
2023-05-12T18:57:09.869Z,77.77
2023-05-12T18:59:37.856Z,77.98
2023-05-12T19:02:07.129Z,78.39
2023-05-12T19:04:35.606Z,77.88
2023-05-12T19:07:04.281Z,78.11
2023-05-12T19:09:33.205Z,78.44
2023-05-12T19:12:02.222Z,77.96
2023-05-12T19:14:30.252Z,78.09
2023-05-12T19:16:58.450Z,77.65
2023-05-12T19:19:27.049Z,77.34
2023-05-12T19:21:55.268Z,77.95
2023-05-12T19:24:25.959Z,77.96
2023-05-12T19:26:54.811Z,78.50
2023-05-12T19:29:23.492Z,78.41
2023-05-12T19:31:52.810Z,78.30
2023-05-12T19:34:21.353Z,78.58
2023-05-12T19:36:52.026Z,78.35
2023-05-12T19:39:20.126Z,78.64
2023-05-12T19:41:48.588Z,78.27
2023-05-12T19:44:17.556Z,78.26
2023-05-12T19:46:46.699Z,78.47
2023-05-12T19:49:15.440Z,78.43
2023-05-12T19:51:44.626Z,78.68
2023-05-12T19:54:12.784Z,78.79
2023-05-12T19:56:40.788Z,78.78
2023-05-12T19:59:11.105Z,78.83
2023-05-12T20:01:39.769Z,78.97
2023-05-12T20:04:08.081Z,79.52
2023-05-12T20:06:37.106Z,79.47
2023-05-12T20:09:05.220Z,79.67
2023-05-12T20:11:34.400Z,79.67
2023-05-12T20:14:05.344Z,79.26
2023-05-12T20:16:33.620Z,78.99
2023-05-12T20:19:02.995Z,79.11
2023-05-12T20:21:31.709Z,79.52
2023-05-12T20:23:59.812Z,79.59
2023-05-12T20:26:28.340Z,79.28
2023-05-12T20:28:58.723Z,79.55
2023-05-12T20:31:27.249Z,79.63
2023-05-12T20:33:56.721Z,79.58
2023-05-12T20:36:25.512Z,79.41
2023-05-12T20:38:53.447Z,79.89
2023-05-12T20:41:22.775Z,79.70
2023-05-12T20:43:50.905Z,79.81
2023-05-12T20:46:20.462Z,79.86
2023-05-12T20:48:50.172Z,79.93
2023-05-12T20:51:18.322Z,80.09
2023-05-12T20:53:46.380Z,80.21
2023-05-12T20:56:15.125Z,80.23
2023-05-12T20:58:44.239Z,80.16
2023-05-12T21:01:12.248Z,80.01
2023-05-12T21:03:40.339Z,79.82
2023-05-12T21:06:09.018Z,79.64
2023-05-12T21:08:37.723Z,79.93
2023-05-12T21:11:18.799Z,80.07
2023-05-12T21:13:48.642Z,80.37
2023-05-12T21:16:17.459Z,80.37
2023-05-12T21:18:46.541Z,80.53
2023-05-12T21:21:15.094Z,80.35
2023-05-12T21:23:43.186Z,80.24
2023-05-12T21:26:11.665Z,80.27
2023-05-12T21:28:39.848Z,80.24
2023-05-12T21:31:07.908Z,80.68
2023-05-12T21:33:35.983Z,80.26
2023-05-12T21:36:04.624Z,80.45
2023-05-12T21:38:32.838Z,80.25
2023-05-12T21:41:00.939Z,80.14
2023-05-12T21:43:29.374Z,80.12
2023-05-12T21:46:02.198Z,80.13
2023-05-12T21:48:32.461Z,80.08
2023-05-12T21:51:02.161Z,80.25
2023-05-12T21:53:30.392Z,80.58
2023-05-12T21:55:58.409Z,80.23
2023-05-12T21:58:27.889Z,80.37
2023-05-12T22:00:56.179Z,80.31
2023-05-12T22:03:24.628Z,80.47
2023-05-12T22:05:52.754Z,80.47
2023-05-12T22:08:20.741Z,80.68
2023-05-12T22:10:49.249Z,80.60
2023-05-12T22:13:17.890Z,80.63
2023-05-12T22:15:45.967Z,80.62
2023-05-12T22:18:14.118Z,80.46
2023-05-12T22:20:42.506Z,80.37
2023-05-12T22:23:10.656Z,80.32
2023-05-12T22:25:38.859Z,80.32
2023-05-12T22:28:07.324Z,80.28
2023-05-12T22:30:35.565Z,80.18
2023-05-12T22:33:03.606Z,80.13
2023-05-12T22:35:31.958Z,80.16
2023-05-12T22:38:00.460Z,79.94
2023-05-12T22:40:28.624Z,80.17
2023-05-12T22:42:56.925Z,79.99
2023-05-12T22:45:25.006Z,79.94
2023-05-12T22:47:53.540Z,79.79
2023-05-12T22:50:23.522Z,80.00
2023-05-12T22:52:51.898Z,80.13
2023-05-12T22:55:20.181Z,80.08
2023-05-12T22:57:48.244Z,80.04
2023-05-12T23:00:16.468Z,80.19
2023-05-12T23:02:44.852Z,80.24
2023-05-12T23:05:12.985Z,80.28
2023-05-12T23:07:40.952Z,80.38
2023-05-12T23:10:09.473Z,80.15
2023-05-12T23:12:37.945Z,80.30
2023-05-12T23:15:06.917Z,80.34
2023-05-12T23:17:35.118Z,80.45
2023-05-12T23:20:05.029Z,80.61
2023-05-12T23:22:33.043Z,80.53
2023-05-12T23:25:01.347Z,80.26
2023-05-12T23:27:29.732Z,79.89
2023-05-12T23:29:57.907Z,79.90
2023-05-12T23:32:26.110Z,79.96
2023-05-12T23:34:54.938Z,79.67
2023-05-12T23:37:22.977Z,79.67
2023-05-12T23:39:51.305Z,79.85
2023-05-12T23:42:19.963Z,79.60
2023-05-12T23:44:47.984Z,79.68
2023-05-12T23:47:16.193Z,79.53
2023-05-12T23:49:44.791Z,79.88
2023-05-12T23:52:12.796Z,79.95
2023-05-12T23:54:40.835Z,79.78
2023-05-12T23:57:09.452Z,79.89
2023-05-12T23:59:37.620Z,79.98
